Pacolet, South Carolina
Current Conditions -  °F | °C
As of 2:35 PM on Monday 20 Oct 2014 (Local Time) from KSPA Reporting Station
Broken Clouds Broken Clouds  
Wind Chill: 72°   Ceiling: 4100
Heat Index: 72°   Visibility: 10mi
Dew Point: 50°   Wind: 9mph
Humidity: 46%   Direction: 230°SW
Pressure: 30.03"   Gusts: NA
Location:  34.9°N, 81.76°W
Report Text: KSPA 201835Z AUTO 23008KT 10SM BKN041 22/10 A3003 RMK AO2
Loading
Personal Weather Stations






























Interactive Weather Map
Tropical Storm Tracking
New forecast layout! Learn more

10-Day Weather Forecast

Advertisements
Track Severe Weather on mobile